OS177 / OE-LGK 7700 Squawk Report (24th of September, 2020)

Aircraft DH8D Reg No. OE-LGK Age N/A
Model DHC-8 Turboprop engines 2 First flight N/A
Registered 01-07-12 Rollout N/A Delivered 27-11-09
Construction No. 4280 Line No. N/A Series Q-402
ADSHEX 44043A Airline name Austrian Airlines Owner N/A
Airfield based Vienna-Schwechat~Vienna~OE First tracked N/A

Flight history for OE-LGK

Route Flight No Date Playback
Venezia Tessera (VCE) - Schwechat (VIE) OS524 2020-09-28 13:31:00
Schwechat (VIE) - Venezia Tessera (VCE) OS523 2020-09-28 11:43:00
???? N/A 2020-09-28 09:24:00
Schwechat (VIE) - Bologna (BLQ) OS547 2020-09-28 07:50:00
Henri Coanda (OTP) - Schwechat (VIE) OS768 2020-09-28 04:33:00
Schwechat (VIE) - Henri Coanda (OTP) OS767 2020-09-27 20:46:00
???? N/A 2020-09-27 13:37:00
???? N/A 2020-09-27 11:18:00
Sarajevo (SJJ) - Schwechat (VIE) OS758 2020-09-26 14:04:00
Schwechat (VIE) - Sarajevo (SJJ) OS757 2020-09-26 11:54:00
Schwechat (VIE) - Stuttgart (STR) OS177 2020-09-24 06:51:00
???? N/A 2020-09-24 04:54:00
Schwechat (VIE) - Innsbruck (INN) OS913 2020-09-23 20:35:00
Leipzig Halle (LEJ) - Schwechat (VIE) OS214 2020-09-23 18:19:00
Podgorica (TGD) - Schwechat (VIE) OS728 2020-09-23 14:09:00
Schwechat (VIE) - Podgorica (TGD) OS727 2020-09-23 11:46:00
Munich Airport (MUC) - Schwechat (VIE) OS112 2020-09-23 07:43:00
Schwechat (VIE) - Munich Airport (MUC) OS111 2020-09-23 05:57:00
Koln Bonn (CGN) - Schwechat (VIE) OS196 2020-09-22 19:04:00
Schwechat (VIE) - Koln Bonn (CGN) OS195 2020-09-22 16:43:00
Time Lat Lon Altitude Heading Speed Vertical Rate
2020-09-24 06:50:29 GMT 48.122166 16.576538 800 166 171 -640
2020-09-24 06:50:18 GMT 48.126774 16.576256 925 166 171 -640
2020-09-24 06:50:10 GMT 48.132267 16.574074 1,000 166 171 -640
2020-09-24 06:49:58 GMT 48.137856 16.572313 1,100 166 171 -640
2020-09-24 06:49:49 GMT 48.144230 16.569073 1,175 166 171 -640
2020-09-24 06:49:40 GMT 48.149166 16.567032 1,350 166 171 -640
2020-09-24 06:49:28 GMT 48.154938 16.565622 1,450 166 171 -640
2020-09-24 06:49:18 GMT 48.160896 16.562395 1,575 167 205 -896
2020-09-24 06:49:07 GMT 48.167881 16.556902 1,625 122 226 -832
2020-09-24 06:48:58 GMT 48.173512 16.555674 1,775 122 226 -832
2020-09-24 06:48:48 GMT 48.181053 16.553289 1,925 122 226 -832
2020-09-24 06:48:37 GMT 48.189247 16.548952 2,100 122 226 -832
2020-09-24 06:48:29 GMT 48.197021 16.544832 2,225 122 226 -832
2020-09-24 06:48:18 GMT 48.203911 16.542736 2,400 122 226 -832
2020-09-24 06:48:08 GMT 48.215176 16.539700 2,625 122 226 -832
2020-09-24 06:47:57 GMT 48.224442 16.535002 2,725 122 226 -832
2020-09-24 06:47:48 GMT 48.233288 16.530739 2,925 122 226 -832
2020-09-24 06:47:37 GMT 48.242970 16.526184 3,175 122 226 -832
2020-09-24 06:47:28 GMT 48.251068 16.522932 3,425 122 226 -832
2020-09-24 06:47:23 GMT 48.257587 16.521414 3,400 122 226 -832
2020-09-24 06:47:14 GMT 48.266804 16.518667 3,600 122 226 -832
2020-09-24 06:47:07 GMT 48.274391 16.514980 3,750 122 226 -832
2020-09-24 06:47:03 GMT 48.274391 16.514980 3,800 122 226 -832
2020-09-24 06:46:54 GMT 48.285797 16.510355 3,975 122 226 -832
2020-09-24 06:46:43 GMT 48.295574 16.504789 4,125 122 226 -832
2020-09-24 06:46:32 GMT 48.303581 16.495104 4,300 122 226 -832
2020-09-24 06:46:23 GMT 48.317917 16.481083 4,400 122 226 -832
2020-09-24 06:46:17 GMT 48.323177 16.471397 4,600 122 226 -832
2020-09-24 06:45:53 GMT 48.340122 16.442631 4,950 0 0 0
2020-09-24 06:45:44 GMT 48.339798 16.434969 5,125 0 0 0
2020-09-24 06:45:32 GMT 48.345150 16.419863 5,225 0 0 0
2020-09-24 06:45:24 GMT 48.347294 16.406563 5,400 0 0 0
2020-09-24 06:45:12 GMT 48.349247 16.387337 5,525 98 253 -1280
2020-09-24 06:45:01 GMT 48.352783 16.362329 5,650 98 253 -1280
2020-09-24 06:44:55 GMT 48.354183 16.348597 5,850 98 253 -1280
2020-09-24 06:44:42 GMT 48.356091 16.329370 6,000 0 0 0
2020-09-24 06:44:30 GMT 48.358185 16.307686 6,150 0 0 0
2020-09-24 06:44:23 GMT 48.359581 16.293230 6,350 0 0 0
2020-09-24 06:44:16 GMT 48.360607 16.282534 6,525 0 0 0
2020-09-24 06:44:05 GMT 48.362980 16.263813 6,675 0 0 0
2020-09-24 06:44:02 GMT 48.361027 16.262512 6,750 0 0 0
2020-09-24 06:43:52 GMT 48.364704 16.250225 6,900 0 0 0
2020-09-24 06:43:42 GMT 48.366936 16.230999 7,100 0 0 0
2020-09-24 06:43:30 GMT 48.369312 16.212063 7,250 99 284 -1024
2020-09-24 06:43:21 GMT 48.371498 16.192041 7,425 99 284 -1024
2020-09-24 06:43:15 GMT 48.372894 16.174982 7,600 99 284 -1024
2020-09-24 06:43:02 GMT 48.376015 16.151491 7,725 99 284 -1024
2020-09-24 06:42:55 GMT 48.377506 16.137976 7,975 99 284 -1024
2020-09-24 06:42:43 GMT 48.379692 16.115570 8,150 99 289 -1024
2020-09-24 06:42:34 GMT 48.381508 16.100101 8,350 99 289 -1024
2020-09-24 06:41:42 GMT 48.393101 15.991612 9,225 99 306 -896
2020-09-24 06:41:26 GMT 48.396404 15.964580 9,375 99 308 -448
2020-09-24 06:41:20 GMT 48.397987 15.949980 9,500 99 308 -448
2020-09-24 06:41:10 GMT 48.400223 15.928802 9,700 99 308 -448
2020-09-24 06:40:57 GMT 48.403202 15.902999 9,775 99 306 -320
2020-09-24 06:40:48 GMT 48.405388 15.884713 9,850 99 308 0
2020-09-24 06:40:42 GMT 48.406788 15.871992 9,925 99 308 0
2020-09-24 06:40:32 GMT 48.409302 15.851031 10,025 99 308 0
2020-09-24 06:40:20 GMT 48.412277 15.823493 10,075 99 308 0
2020-09-24 06:40:12 GMT 48.413212 15.815036 10,075 99 308 0
2020-09-24 06:40:03 GMT 48.416424 15.783523 10,075 99 308 0
2020-09-24 06:39:51 GMT 48.418983 15.760105 10,075 99 308 0
2020-09-24 06:39:40 GMT 48.420567 15.749986 10,075 99 308 0
2020-09-24 06:39:31 GMT 48.422474 15.728302 10,075 99 308 0
2020-09-24 06:39:20 GMT 48.424988 15.703800 10,075 99 308 0
2020-09-24 06:39:11 GMT 48.427036 15.685369 10,075 99 308 0
2020-09-24 06:39:01 GMT 48.429459 15.664119 10,075 99 308 0
2020-09-24 06:38:51 GMT 48.431877 15.645037 10,075 99 305 0
2020-09-24 06:38:42 GMT 48.434998 15.611428 10,075 99 305 0
2020-09-24 06:38:31 GMT 48.435974 15.605067 10,075 98 308 0
2020-09-24 06:38:20 GMT 48.438534 15.577095 10,075 98 308 0
2020-09-24 06:38:09 GMT 48.441048 15.556279 10,075 98 308 0
2020-09-24 06:38:00 GMT 48.443283 15.535246 10,075 98 308 0
2020-09-24 06:37:49 GMT 48.445797 15.513852 10,075 98 308 0
2020-09-24 06:37:40 GMT 48.447891 15.494192 10,075 98 308 0
2020-09-24 06:37:30 GMT 48.450268 15.471135 10,075 98 308 0
2020-09-24 06:37:20 GMT 48.455807 15.418733 10,075 98 308 0
2020-09-24 06:37:10 GMT 48.455807 15.418733 10,075 98 308 0
2020-09-24 06:36:59 GMT 48.456642 15.408976 10,075 99 310 0
2020-09-24 06:36:49 GMT 48.461067 15.366476 10,075 98 297 0
2020-09-24 06:36:38 GMT 48.461067 15.366476 10,075 98 297 0
2020-09-24 06:36:29 GMT 48.463394 15.344142 10,075 98 297 0
2020-09-24 06:36:19 GMT 48.465767 15.322097 10,075 98 297 0
2020-09-24 06:36:08 GMT 48.467911 15.300630 10,075 98 297 0
2020-09-24 06:35:57 GMT 48.471588 15.261889 10,075 98 297 0
2020-09-24 06:35:46 GMT 48.473122 15.244181 10,075 98 297 0
2020-09-24 06:35:34 GMT 48.475590 15.220112 10,075 98 297 0
2020-09-24 06:35:29 GMT 48.476894 15.207825 10,050 98 297 0
2020-09-24 06:35:14 GMT 48.480476 15.175299 10,075 98 300 0
2020-09-24 06:35:08 GMT 48.481407 15.167276 10,075 98 300 0
2020-09-24 06:34:55 GMT 48.483177 15.138221 10,075 98 300 0
2020-09-24 06:34:47 GMT 48.485786 15.121813 10,075 98 300 0
2020-09-24 06:34:36 GMT 48.488483 15.099190 10,075 98 300 0
2020-09-24 06:34:28 GMT 48.489883 15.085024 10,075 98 300 0
2020-09-24 06:34:20 GMT 48.491791 15.064786 10,075 98 300 0
2020-09-24 06:34:13 GMT 48.493187 15.050691 10,075 98 300 0
2020-09-24 06:34:03 GMT 48.495281 15.030598 10,075 98 300 0
2020-09-24 06:33:56 GMT 48.496166 15.029369 10,075 98 305 0
2020-09-24 06:33:48 GMT 48.497471 15.007252 10,075 98 305 0
2020-09-24 06:33:36 GMT 48.501194 14.988170 10,075 98 305 0
2020-09-24 06:33:27 GMT 48.502312 14.965258 10,075 98 305 0
2020-09-24 06:33:17 GMT 48.503895 14.947261 10,075 98 305 0
2020-09-24 06:33:06 GMT 48.506176 14.924349 10,075 98 305 0
2020-09-24 06:32:56 GMT 48.507992 14.904906 10,075 98 305 0
2020-09-24 06:32:44 GMT 48.510460 14.880259 10,075 98 305 0
2020-09-24 06:32:36 GMT 48.512459 14.862478 10,075 98 305 0
2020-09-24 06:32:27 GMT 48.514088 14.842312 10,075 98 305 0
2020-09-24 06:32:16 GMT 48.516277 14.818605 10,075 99 307 64
2020-09-24 06:32:06 GMT 48.518978 14.800030 10,050 99 307 64
2020-09-24 06:31:55 GMT 48.520840 14.774588 10,075 99 307 64
2020-09-24 06:31:45 GMT 48.523956 14.757096 10,075 98 311 64
2020-09-24 06:31:33 GMT 48.526283 14.723776 10,075 98 312 64
2020-09-24 06:31:22 GMT 48.528984 14.698478 10,050 99 320 0
2020-09-24 06:30:18 GMT 48.543278 14.554572 10,075 0 0 0
2020-09-24 06:30:07 GMT 48.545094 14.532527 10,075 0 0 0
2020-09-24 06:29:03 GMT 48.559196 14.393174 10,075 0 0 0
2020-09-24 06:28:11 GMT 48.570278 14.293719 10,075 0 0 0
2020-09-24 06:27:59 GMT 48.572418 14.269795 10,075 89 295 0
2020-09-24 06:27:47 GMT 48.574188 14.245292 10,075 89 295 0
2020-09-24 06:27:37 GMT 48.574978 14.217899 10,075 89 295 0
2020-09-24 06:27:27 GMT 48.574978 14.205828 10,075 89 295 0
2020-09-24 06:27:11 GMT 48.575306 14.170701 10,075 89 295 0
2020-09-24 06:27:05 GMT 48.574978 14.160510 10,075 89 295 0
2020-09-24 06:26:53 GMT 48.574795 14.133622 10,075 89 294 0
2020-09-24 06:26:45 GMT 48.574421 14.090327 10,075 89 293 0
2020-09-24 06:26:32 GMT 48.574421 14.090327 10,075 89 293 0
2020-09-24 06:26:25 GMT 48.574421 14.080136 10,075 91 295 0
2020-09-24 06:26:12 GMT 48.574001 14.047683 10,075 91 295 0
2020-09-24 06:26:00 GMT 48.573814 14.025204 10,075 91 295 0
2020-09-24 06:25:54 GMT 48.574001 14.012772 10,075 91 295 0
2020-09-24 06:25:42 GMT 48.574188 13.988125 10,075 91 295 0
2020-09-24 06:25:34 GMT 48.574608 13.973597 10,075 90 302 -192
2020-09-24 06:25:20 GMT 48.574280 13.945626 10,075 91 294 0
2020-09-24 06:25:13 GMT 48.574421 13.929218 10,075 91 294 0
2020-09-24 06:24:59 GMT 48.574886 13.899223 10,075 91 294 0
2020-09-24 06:24:50 GMT 48.574978 13.882816 10,075 91 294 0
2020-09-24 06:24:39 GMT 48.575211 13.858096 10,075 91 294 0
2020-09-24 06:24:26 GMT 48.575397 13.834534 10,075 91 294 0
2020-09-24 06:24:22 GMT 48.575584 13.822102 10,075 91 294 0
2020-09-24 06:24:09 GMT 48.575676 13.798684 10,075 91 294 0
2020-09-24 06:23:56 GMT 48.576424 13.772591 10,075 91 294 0
2020-09-24 06:23:51 GMT 48.576607 13.762472 10,075 91 294 0
2020-09-24 06:23:36 GMT 48.576515 13.730886 10,075 91 294 0
2020-09-24 06:23:29 GMT 48.576187 13.715636 10,075 91 294 0
2020-09-24 06:23:21 GMT 48.575584 13.692796 10,075 91 294 0
2020-09-24 06:23:03 GMT 48.575909 13.660415 10,075 91 294 0
2020-09-24 06:22:58 GMT 48.576096 13.653115 10,075 90 299 64
2020-09-24 06:22:43 GMT 48.576004 13.624492 10,075 91 298 -64
2020-09-24 06:22:34 GMT 48.576607 13.601508 10,075 91 298 -64
2020-09-24 06:22:20 GMT 48.576702 13.575704 10,075 91 298 -64
2020-09-24 06:22:12 GMT 48.577213 13.558936 10,075 91 298 -64
2020-09-24 06:22:04 GMT 48.577911 13.542529 10,075 91 298 -64
2020-09-24 06:21:51 GMT 48.578705 13.507329 10,075 88 308 0
2020-09-24 06:21:43 GMT 48.577911 13.499017 10,075 88 308 0
2020-09-24 06:21:31 GMT 48.578098 13.471334 10,075 88 308 0
2020-09-24 06:21:25 GMT 48.578098 13.460999 10,075 88 308 0
2020-09-24 06:21:11 GMT 48.579216 13.416475 10,075 88 308 0
2020-09-24 06:21:03 GMT 48.579216 13.416475 10,075 88 308 0
2020-09-24 06:20:53 GMT 48.579494 13.389515 10,075 88 308 0
2020-09-24 06:20:41 GMT 48.579823 13.369783 10,100 88 308 0
2020-09-24 06:20:34 GMT 48.580101 13.352798 10,100 88 308 0
2020-09-24 06:20:21 GMT 48.580799 13.327934 10,100 88 308 0
2020-09-24 06:20:10 GMT 48.582104 13.302781 10,100 88 308 0
2020-09-24 06:19:55 GMT 48.582615 13.275893 10,100 88 308 0
2020-09-24 06:19:51 GMT 48.582382 13.263028 10,075 88 308 0
2020-09-24 06:19:34 GMT 48.585316 13.212433 10,075 74 289 64
2020-09-24 06:19:26 GMT 48.585316 13.212433 10,075 74 289 64
2020-09-24 06:19:19 GMT 48.582893 13.195014 10,075 74 289 64
2020-09-24 06:19:10 GMT 48.579590 13.175065 10,050 3 246 192
2020-09-24 06:18:48 GMT 48.562595 13.116808 10,050 317 291 -2368
2020-09-24 06:18:34 GMT 48.547279 13.103220 10,075 317 291 -2368
2020-09-24 06:18:24 GMT 48.532990 13.108569 10,075 317 291 -2368
2020-09-24 06:18:17 GMT 48.527821 13.112689 10,100 317 291 -2368
2020-09-24 06:18:09 GMT 48.518513 13.120711 10,125 317 291 -2368
2020-09-24 06:17:58 GMT 48.507477 13.131192 10,175 317 291 -2368
2020-09-24 06:17:50 GMT 48.497704 13.142901 10,325 317 291 -2368
2020-09-24 06:17:38 GMT 48.487183 13.155694 10,700 317 291 -2368
2020-09-24 06:17:25 GMT 48.476101 13.169283 11,250 317 291 -2368
2020-09-24 06:17:16 GMT 48.465397 13.182365 11,550 317 291 -2368
2020-09-24 06:17:09 GMT 48.459297 13.189521 12,075 317 291 -2368
2020-09-24 06:17:00 GMT 48.450211 13.200003 12,200 317 291 -2368
2020-09-24 06:16:54 GMT 48.443192 13.208602 12,525 317 291 -2368
2020-09-24 06:16:40 GMT 48.430901 13.224720 12,900 317 291 -2368
2020-09-24 06:16:29 GMT 48.419216 13.239899 13,425 317 291 -2368
2020-09-24 06:16:23 GMT 48.412277 13.248717 13,775 317 291 -2368
2020-09-24 06:16:11 GMT 48.401108 13.263172 14,200 317 291 -2368
2020-09-24 06:16:04 GMT 48.397148 13.268232 14,450 317 291 -2368
2020-09-24 06:15:58 GMT 48.384487 13.286591 14,825 320 311 -2624
2020-09-24 06:15:53 GMT 48.384487 13.286591 15,025 320 311 -2624
2020-09-24 06:15:43 GMT 48.374805 13.300902 15,400 320 311 -2624
2020-09-24 06:15:37 GMT 48.369545 13.307262 15,625 320 311 -2624
2020-09-24 06:15:30 GMT 48.361118 13.321067 15,750 320 311 -2624
2020-09-24 06:15:23 GMT 48.352692 13.332271 15,975 320 311 -2624
2020-09-24 06:15:17 GMT 48.346596 13.340293 16,150 320 311 -2624
2020-09-24 06:15:10 GMT 48.340218 13.348606 16,575 320 311 -2624
2020-09-24 06:15:07 GMT 48.338772 13.347810 16,850 320 311 -2624
2020-09-24 06:14:55 GMT 48.327831 13.364073 17,250 318 317 -2688
2020-09-24 06:14:40 GMT 48.308002 13.391033 17,925 0 0 0
2020-09-24 06:14:33 GMT 48.301113 13.399923 18,325 0 0 0
2020-09-24 06:14:26 GMT 48.296040 13.406573 18,750 0 0 0
2020-09-24 06:14:21 GMT 48.286587 13.420089 18,850 325 328 -3136
2020-09-24 06:14:11 GMT 48.269409 13.455505 19,425 325 328 -3136
2020-09-24 06:14:00 GMT 48.269409 13.455505 19,900 325 328 -3200
2020-09-24 06:13:51 GMT 48.255817 13.470106 20,400 327 339 -4032
2020-09-24 06:13:37 GMT 48.194695 13.507474 20,950 327 339 -4032
2020-09-24 06:13:18 GMT 48.189808 13.516219 22,050 282 345 -1408
2020-09-24 06:13:07 GMT 48.189808 13.516219 22,375 282 345 -1408
2020-09-24 06:12:54 GMT 48.185989 13.546504 23,600 270 305 -128
2020-09-24 06:12:43 GMT 48.187107 13.566236 24,000 270 305 -128
2020-09-24 06:12:36 GMT 48.180496 13.587703 24,000 270 305 -128
2020-09-24 06:12:23 GMT 48.180588 13.610181 23,975 270 305 -128
2020-09-24 06:12:17 GMT 48.182125 13.614301 23,975 270 305 -128
2020-09-24 06:12:11 GMT 48.179890 13.630492 24,000 270 305 -128
2020-09-24 06:12:02 GMT 48.180683 13.649356 24,000 270 305 -128
2020-09-24 06:11:56 GMT 48.180542 13.673570 24,000 270 305 -128
2020-09-24 06:11:39 GMT 48.180496 13.708986 24,000 0 0 0
2020-09-24 06:11:33 GMT 48.180820 13.710215 23,975 270 305 -128
2020-09-24 06:11:19 GMT 48.181801 13.749173 23,975 270 305 -128
2020-09-24 06:11:08 GMT 48.182079 13.774687 24,000 271 304 0
2020-09-24 06:11:01 GMT 48.181984 13.791528 24,000 271 305 64
2020-09-24 06:10:57 GMT 48.182079 13.804032 24,000 271 305 64
2020-09-24 06:10:47 GMT 48.181801 13.818271 24,000 270 313 0
2020-09-24 06:10:41 GMT 48.181564 13.823764 24,000 270 313 0
2020-09-24 06:09:58 GMT 48.181519 13.926833 23,975 270 308 0
2020-09-24 06:09:46 GMT 48.181892 13.950396 24,000 270 308 0
2020-09-24 06:09:31 GMT 48.181984 13.982488 24,000 270 308 0
2020-09-24 06:09:23 GMT 48.182079 14.001714 23,975 270 308 0
2020-09-24 06:09:16 GMT 48.181984 14.014507 24,000 270 314 128
2020-09-24 06:09:07 GMT 48.181564 14.025349 24,000 270 314 128
2020-09-24 06:09:02 GMT 48.182217 14.046382 23,975 270 308 64
2020-09-24 06:08:55 GMT 48.182404 14.057802 24,000 270 308 64
2020-09-24 06:08:47 GMT 48.181984 14.081292 24,000 271 306 0
2020-09-24 06:08:42 GMT 48.182915 14.091628 24,000 271 306 0
2020-09-24 06:08:34 GMT 48.183102 14.104783 24,000 271 306 0
2020-09-24 06:08:20 GMT 48.183193 14.134128 24,000 271 308 -64
2020-09-24 06:08:14 GMT 48.183193 14.150897 24,000 272 318 -64
2020-09-24 06:08:06 GMT 48.183289 14.163401 23,975 272 318 -64
2020-09-24 06:08:00 GMT 48.183289 14.173303 23,975 272 318 -64
2020-09-24 06:07:51 GMT 48.183380 14.192529 23,975 273 323 256
2020-09-24 06:07:44 GMT 48.181801 14.212912 23,975 269 321 320
2020-09-24 06:07:36 GMT 48.181984 14.228596 24,000 269 321 320
2020-09-24 06:07:30 GMT 48.182495 14.247027 24,000 270 311 0
2020-09-24 06:07:23 GMT 48.182915 14.259314 24,000 270 311 0
2020-09-24 06:07:18 GMT 48.182682 14.270084 24,000 270 311 0
2020-09-24 06:07:12 GMT 48.182590 14.282877 23,975 270 311 0
2020-09-24 06:07:04 GMT 48.183010 14.298489 23,975 270 305 0
2020-09-24 06:06:59 GMT 48.183010 14.311427 23,975 270 305 0
2020-09-24 06:06:51 GMT 48.183010 14.326100 24,000 271 311 0
2020-09-24 06:06:43 GMT 48.183289 14.342507 23,975 271 311 0
2020-09-24 06:06:35 GMT 48.182915 14.357324 23,975 271 311 0
2020-09-24 06:06:22 GMT 48.182823 14.387825 23,975 271 311 0
2020-09-24 06:06:10 GMT 48.183289 14.412183 24,000 272 309 0
2020-09-24 06:06:05 GMT 48.183102 14.429024 24,000 272 309 0
2020-09-24 06:05:52 GMT 48.182823 14.454322 24,000 270 319 64
2020-09-24 06:05:45 GMT 48.182590 14.469428 24,000 270 319 64
2020-09-24 06:05:34 GMT 48.181381 14.492412 24,000 270 319 64
2020-09-24 06:05:28 GMT 48.181705 14.509326 24,000 270 319 64
2020-09-24 06:05:22 GMT 48.181801 14.520167 24,000 270 321 0
2020-09-24 06:05:11 GMT 48.181705 14.538381 24,000 270 320 128
2020-09-24 06:05:04 GMT 48.182217 14.572136 23,975 270 320 128
2020-09-24 06:04:59 GMT 48.182217 14.572136 23,975 270 320 128
2020-09-24 06:04:48 GMT 48.182823 14.588109 24,000 270 320 128
2020-09-24 06:04:42 GMT 48.182590 14.605384 24,000 269 323 64
2020-09-24 06:04:36 GMT 48.182404 14.613985 24,000 269 323 64
2020-09-24 06:04:28 GMT 48.182823 14.634295 24,000 270 316 64
2020-09-24 06:04:21 GMT 48.183102 14.650124 24,000 270 316 64
2020-09-24 06:04:15 GMT 48.183521 14.665808 23,975 270 316 64
2020-09-24 06:04:08 GMT 48.183613 14.681204 23,975 273 321 -192
2020-09-24 06:04:01 GMT 48.184078 14.691901 24,000 273 321 -192
2020-09-24 06:03:56 GMT 48.183987 14.704477 24,000 273 321 -192
2020-09-24 06:03:49 GMT 48.183895 14.722113 24,000 273 321 -192
2020-09-24 06:03:43 GMT 48.183895 14.730787 23,975 273 321 -192
2020-09-24 06:03:35 GMT 48.183987 14.750302 23,975 273 321 -192
2020-09-24 06:03:26 GMT 48.183987 14.770179 23,975 273 321 -192
2020-09-24 06:03:19 GMT 48.183895 14.783767 23,975 273 321 -192
2020-09-24 06:03:12 GMT 48.184078 14.803282 23,975 273 321 -192
2020-09-24 06:02:26 GMT 48.183147 14.892401 24,000 273 331 0
2020-09-24 06:02:16 GMT 48.182823 14.915025 24,000 273 331 0
2020-09-24 06:02:07 GMT 48.183193 14.935841 24,000 273 331 0
2020-09-24 06:01:57 GMT 48.183102 14.958103 24,000 273 331 0
2020-09-24 06:01:48 GMT 48.182495 14.975305 24,000 273 331 0
2020-09-24 06:01:37 GMT 48.181751 15.000313 24,000 273 331 0
2020-09-24 06:01:30 GMT 48.183380 15.021491 24,000 273 331 0
2020-09-24 06:01:26 GMT 48.181103 15.024743 24,000 273 320 0
2020-09-24 06:01:19 GMT 48.183102 15.045776 23,975 273 320 0
2020-09-24 06:01:12 GMT 48.181286 15.067099 23,975 273 320 0
2020-09-24 06:01:05 GMT 48.180077 15.070785 24,000 273 319 448
2020-09-24 06:00:58 GMT 48.178757 15.087891 24,000 275 302 -64
2020-09-24 06:00:47 GMT 48.179192 15.111405 24,000 275 302 -64
2020-09-24 06:00:36 GMT 48.177982 15.134173 24,000 275 302 -64
2020-09-24 06:00:26 GMT 48.177143 15.156435 24,000 275 302 -64
2020-09-24 06:00:15 GMT 48.176632 15.179202 24,000 275 302 -64
2020-09-24 06:00:05 GMT 48.175236 15.202982 24,000 270 296 -64
2020-09-24 05:59:55 GMT 48.175701 15.222642 24,000 270 296 -64
2020-09-24 05:59:24 GMT 48.175514 15.301064 24,000 0 0 0
2020-09-24 05:59:18 GMT 48.175095 15.310026 23,975 0 0 0
2020-09-24 05:59:06 GMT 48.174397 15.350430 23,975 0 0 0
2020-09-24 05:58:56 GMT 48.174397 15.350430 23,975 0 0 0
2020-09-24 05:58:38 GMT 48.173698 15.383028 23,925 0 0 0
2020-09-24 05:58:29 GMT 48.172115 15.399435 23,750 0 0 0
2020-09-24 05:58:26 GMT 48.170906 15.398062 23,700 0 0 0
2020-09-24 05:58:15 GMT 48.170021 15.417215 23,450 0 0 0
2020-09-24 05:58:04 GMT 48.168251 15.436225 23,250 0 0 0
2020-09-24 05:57:55 GMT 48.166718 15.452054 23,075 0 0 0
2020-09-24 05:57:36 GMT 48.163223 15.488699 22,600 0 0 0
2020-09-24 05:57:24 GMT 48.161407 15.511900 22,475 276 257 1280
2020-09-24 05:57:18 GMT 48.160198 15.525724 22,225 276 257 1280
2020-09-24 05:57:07 GMT 48.159500 15.540795 22,000 0 0 0
2020-09-24 05:56:55 GMT 48.158382 15.564669 21,850 0 0 0
2020-09-24 05:56:41 GMT 48.152985 15.621502 21,575 0 0 0
2020-09-24 05:56:25 GMT 48.152985 15.621502 21,125 0 0 0
2020-09-24 05:56:14 GMT 48.151493 15.641010 20,900 0 0 0
2020-09-24 05:56:07 GMT 48.150795 15.650024 20,575 0 0 0
2020-09-24 05:55:52 GMT 48.148605 15.676716 20,400 0 0 0
2020-09-24 05:55:46 GMT 48.144279 15.724534 20,125 0 0 0
2020-09-24 05:55:24 GMT 48.144279 15.724534 19,625 0 0 0
2020-09-24 05:55:15 GMT 48.142788 15.742070 19,375 0 0 0
2020-09-24 05:55:03 GMT 48.140320 15.752916 19,050 278 249 1664
2020-09-24 05:54:56 GMT 48.139484 15.770592 18,850 278 249 1664
2020-09-24 05:54:52 GMT 48.139065 15.771860 18,750 278 249 1664
2020-09-24 05:54:40 GMT 48.136688 15.800523 18,600 278 249 1664
2020-09-24 05:54:35 GMT 48.135899 15.809397 18,275 278 249 1664
2020-09-24 05:54:23 GMT 48.134083 15.830313 18,000 0 0 0
2020-09-24 05:54:08 GMT 48.132221 15.855596 17,775 0 0 0
2020-09-24 05:53:56 GMT 48.129799 15.878695 17,225 0 0 0
2020-09-24 05:53:32 GMT 48.127239 15.910105 16,550 0 0 0
2020-09-24 05:52:52 GMT 48.120491 15.989967 15,400 0 0 0
2020-09-24 05:52:39 GMT 48.118580 16.014404 15,125 0 0 0
2020-09-24 05:52:31 GMT 48.118347 16.016586 14,625 0 0 0
2020-09-24 05:52:21 GMT 48.116814 16.034122 14,375 0 0 0
2020-09-24 05:52:09 GMT 48.115089 16.054758 14,025 0 0 0
2020-09-24 05:52:00 GMT 48.113087 16.077717 13,800 280 253 1856
2020-09-24 05:51:50 GMT 48.112156 16.088703 13,475 275 238 1856
2020-09-24 05:51:41 GMT 48.105221 16.134268 13,100 275 238 1856
2020-09-24 05:51:28 GMT 48.105221 16.134268 12,775 275 238 1856
2020-09-24 05:51:21 GMT 48.104710 16.144197 12,550 0 0 0
2020-09-24 05:51:10 GMT 48.103592 16.163986 12,300 0 0 0
2020-09-24 05:51:01 GMT 48.102520 16.178705 11,950 0 0 0
2020-09-24 05:50:46 GMT 48.101685 16.203918 11,600 0 0 0
2020-09-24 05:50:38 GMT 48.101078 16.218708 11,275 0 0 0
2020-09-24 05:50:31 GMT 48.100891 16.226383 10,925 0 0 0
2020-09-24 05:50:23 GMT 48.100380 16.241808 10,700 0 0 0
2020-09-24 05:50:10 GMT 48.100052 16.262232 10,375 0 0 0
2020-09-24 05:50:03 GMT 48.099915 16.266598 9,950
2020-09-24 05:49:52 GMT 48.099216 16.282372 9,525
2020-09-24 05:49:42 GMT 48.098751 16.297091 9,175
2020-09-24 05:49:32 GMT 48.097771 16.313358 8,650
2020-09-24 05:49:21 GMT 48.097355 16.331177 8,275
2020-09-24 05:49:11 GMT 48.097260 16.345613 7,925

Making use of Plane Finder data

You are free to use the raw flight data, aircraft information and images provided in this report for your own purposes provided the data is correctly attributed to Plane Finder. We ask that you please credit Plane Finder and link to planefinder.net in close proximity to the content.

Optionally one of the following logos (no smaller then 150x24px) can be used and must link to planefinder.net

Embedding the Plane Finder map

You are welcome to embed the Plane Finder playback map on your website to offer visitors a more interactive experience. We suggest using the following HTML code:

<iframe src="//planefinder.net/data/report/OS177-OE-LGK-7700-squawk-2020-09-24/map" width="800" height="600" seamless="seamless"></iframe>

Where our data comes from

Plane Finder has a global network of data feeds and antenna radars that receive data broadcast directly from aircraft. The primary technologies used are ADS-B and MLAT. We also show feeds from the FAA and a FLARM glider feed.

Click here to find out more about the Plane Finder network.

How we collect our data